Time;durP1;ratioP1;P1;durP2;ratioP2;P2;SDS_P1;SDS_P2;PMS_P1;PMS_P2;Temp;Humidity;BMP_temperature;BMP_pressure;BME280_temperature;BME280_humidity;BME280_pressure;Samples;Min_cycle;Max_cycle;Signal;HPM_P1;HPM_P2
2022/10/19 00:02:17;;;;;;;13.20;8.43;;;;;;;8.95;100.00;100562.38;6297257;28;20072;-77
2022/10/19 00:05:17;;;;;;;18.52;9.45;;;;;;;8.95;100.00;100547.59;6303121;28;20495;-74
2022/10/19 00:08:18;;;;;;;11.32;7.80;;;;;;;8.94;100.00;100553.75;6280238;28;20114;-76
2022/10/19 00:11:20;;;;;;;17.70;8.50;;;;;;;8.94;100.00;100545.94;6281733;28;20041;-76
2022/10/19 00:14:25;;;;;;;30.33;9.37;;;;;;;8.94;100.00;100547.69;6279683;28;20057;-76
2022/10/19 00:17:25;;;;;;;15.90;8.10;;;;;;;8.88;100.00;100547.06;6282115;28;20096;-72
2022/10/19 00:20:32;;;;;;;15.75;8.40;;;;;;;8.88;100.00;100541.84;6272191;28;20033;-72
2022/10/19 00:23:38;;;;;;;14.60;7.72;;;;;;;8.86;100.00;100543.69;6298172;28;20036;-77
2022/10/19 00:26:39;;;;;;;15.20;8.88;;;;;;;8.87;100.00;100552.31;6308249;28;20052;-77
2022/10/19 00:29:42;;;;;;;15.48;8.48;;;;;;;8.87;100.00;100547.13;6308360;28;20044;-77
2022/10/19 00:32:42;;;;;;;18.30;7.70;;;;;;;8.83;100.00;100543.84;6308098;28;20040;-76
2022/10/19 00:35:43;;;;;;;11.70;8.02;;;;;;;8.87;100.00;100558.38;6306815;28;20098;-77
2022/10/19 00:38:47;;;;;;;19.35;8.88;;;;;;;8.83;100.00;100553.38;6308291;28;20070;-77
2022/10/19 00:41:48;;;;;;;13.48;8.38;;;;;;;8.81;100.00;100563.88;6304960;28;20053;-76
2022/10/19 00:44:49;;;;;;;15.50;7.78;;;;;;;8.80;100.00;100554.38;6305388;28;20400;-76
2022/10/19 00:47:50;;;;;;;11.05;7.47;;;;;;;8.78;100.00;100552.75;6307401;28;20094;-76
2022/10/19 00:50:53;;;;;;;12.18;7.47;;;;;;;8.76;100.00;100544.19;6304132;28;20040;-76
2022/10/19 00:53:55;;;;;;;13.30;8.60;;;;;;;8.74;100.00;100535.59;6286517;28;20045;-77
2022/10/19 00:56:56;;;;;;;;;;;;;;;8.67;100.00;100533.28;6303984;28;20052;-77
2022/10/19 01:00:02;;;;;;;12.13;6.90;;;;;;;8.65;100.00;100523.84;6300962;28;19959;-72
2022/10/19 01:03:07;;;;;;;14.40;7.63;;;;;;;8.68;100.00;100521.94;6304088;28;20045;-77
2022/10/19 01:06:09;;;;;;;13.73;7.88;;;;;;;8.65;100.00;100531.66;6298365;28;20491;-71
2022/10/19 01:09:09;;;;;;;13.98;8.05;;;;;;;8.61;100.00;100520.53;6296111;28;20392;-72
2022/10/19 01:12:30;;;;;;;12.52;8.57;;;;;;;8.60;100.00;100521.44;6296793;28;20040;-73
2022/10/19 01:15:45;;;;;;;15.65;8.07;;;;;;;8.61;100.00;100511.91;6295879;28;20131;-73
2022/10/19 01:19:09;;;;;;;15.50;9.02;;;;;;;8.61;100.00;100511.91;6302304;28;20048;-77
2022/10/19 01:22:47;;;;;;;12.30;8.57;;;;;;;8.57;100.00;100503.38;6258600;28;20056;-76
2022/10/19 01:25:53;;;;;;;14.10;7.45;;;;;;;8.55;100.00;100492.22;6308456;28;20063;-77
2022/10/19 01:29:15;;;;;;;15.43;8.45;;;;;;;8.59;100.00;100479.91;6309460;28;20048;-76
2022/10/19 01:32:27;;;;;;;13.80;8.35;;;;;;;8.55;100.00;100487.00;6301083;28;20049;-73
2022/10/19 01:35:38;;;;;;;13.77;8.32;;;;;;;8.58;100.00;100491.22;6301587;28;20057;-72
2022/10/19 01:38:48;;;;;;;15.32;8.75;;;;;;;8.58;100.00;100483.41;6302012;28;20045;-72
2022/10/19 01:42:04;;;;;;;14.82;8.70;;;;;;;8.60;100.00;100476.38;6293157;28;20045;-73
2022/10/19 01:45:13;;;;;;;15.18;9.30;;;;;;;8.56;100.00;100470.47;6276711;28;20071;-72
2022/10/19 01:48:19;;;;;;;16.17;9.65;;;;;;;8.63;100.00;100469.28;6277043;28;20040;-77
2022/10/19 01:51:28;;;;;;;20.05;9.50;;;;;;;8.59;100.00;100461.72;6281463;28;20543;-77
2022/10/19 01:54:36;;;;;;;16.60;8.80;;;;;;;8.53;100.00;100456.78;6277399;28;20041;-73
2022/10/19 01:58:01;;;;;;;13.80;7.63;;;;;;;8.60;100.00;100461.63;6288290;28;20140;-76
2022/10/19 02:01:06;;;;;;;13.32;8.40;;;;;;;8.61;100.00;100463.31;6306916;28;20540;-77
2022/10/19 02:04:07;;;;;;;12.88;8.18;;;;;;;8.61;100.00;100465.91;6307948;28;20040;-77
2022/10/19 02:07:09;;;;;;;15.57;8.45;;;;;;;8.57;100.00;100461.78;6296641;28;20084;-72
2022/10/19 02:10:11;;;;;;;15.00;9.10;;;;;;;8.60;100.00;100458.19;6275751;28;20513;-73
2022/10/19 02:13:14;;;;;;;13.98;8.30;;;;;;;8.62;100.00;100461.56;6280144;28;20061;-77
2022/10/19 02:16:38;;;;;;;15.10;8.65;;;;;;;8.55;100.00;100455.78;6284101;28;20120;-76
2022/10/19 02:19:42;;;;;;;12.23;7.53;;;;;;;8.56;100.00;100456.63;6284946;28;20045;-77
2022/10/19 02:22:43;;;;;;;14.65;8.02;;;;;;;8.52;100.00;100452.50;6286259;28;20083;-76
2022/10/19 02:25:44;;;;;;;12.60;7.88;;;;;;;8.56;100.00;100457.47;6309435;28;20037;-77
2022/10/19 02:28:45;;;;;;;14.30;8.13;;;;;;;8.55;100.00;100465.38;6311331;28;20054;-76
2022/10/19 02:31:46;;;;;;;17.15;8.10;;;;;;;8.58;100.00;100462.59;6311980;28;20147;-77
2022/10/19 02:34:47;;;;;;;12.52;7.88;;;;;;;8.57;100.00;100460.94;6310504;28;20052;-77
2022/10/19 02:37:48;;;;;;;14.93;8.30;;;;;;;8.55;100.00;100452.38;6310027;28;20047;-76
2022/10/19 02:41:01;;;;;;;11.68;7.88;;;;;;;8.56;100.00;100447.06;6306805;28;20401;-76
2022/10/19 02:44:32;;;;;;;16.30;8.55;;;;;;;8.51;100.00;100443.84;6305222;28;20492;-76
2022/10/19 02:47:46;;;;;;;12.95;8.25;;;;;;;8.46;100.00;100440.59;6306782;28;20079;-76
2022/10/19 02:50:47;;;;;;;13.32;8.55;;;;;;;8.42;100.00;100439.91;6306834;28;20040;-76
2022/10/19 02:53:48;;;;;;;15.98;8.18;;;;;;;8.43;100.00;100451.16;6304856;28;20075;-76
2022/10/19 02:56:49;;;;;;;12.68;7.90;;;;;;;8.47;100.00;100456.13;6303790;28;20436;-77
2022/10/19 02:59:50;;;;;;;17.08;8.45;;;;;;;8.43;100.00;100446.78;6300161;28;20066;-73
2022/10/19 03:02:52;;;;;;;22.60;8.38;;;;;;;8.44;100.00;100445.03;6282078;28;20076;-77
2022/10/19 03:05:54;;;;;;;17.10;9.00;;;;;;;8.36;100.00;100434.97;6278664;28;20124;-77
2022/10/19 03:08:55;;;;;;;16.38;9.65;;;;;;;8.41;100.00;100448.63;6280745;28;20489;-77
2022/10/19 03:11:55;;;;;;;15.95;8.80;;;;;;;8.42;100.00;100458.13;6277588;28;20095;-77
2022/10/19 03:14:56;;;;;;;16.00;9.38;;;;;;;8.45;100.00;100459.72;6277324;28;20132;-76
2022/10/19 03:17:56;;;;;;;13.93;8.95;;;;;;;8.45;100.00;100459.72;6281016;28;20087;-77
2022/10/19 03:21:11;;;;;;;13.52;8.15;;;;;;;8.48;100.00;100464.78;6278189;28;20069;-72
2022/10/19 03:24:11;;;;;;;16.98;9.30;;;;;;;8.54;100.00;100456.69;6296701;28;20049;-72
2022/10/19 03:27:14;;;;;;;18.08;8.52;;;;;;;8.60;100.00;100461.63;6299347;28;20048;-72
2022/10/19 03:30:16;;;;;;;15.25;8.23;;;;;;;8.60;100.00;100472.03;6297977;28;20064;-76
2022/10/19 03:33:17;;;;;;;16.08;8.63;;;;;;;8.58;100.00;100460.00;6303700;28;20128;-73
2022/10/19 03:36:28;;;;;;;15.00;9.38;;;;;;;8.66;100.00;100466.53;6297983;28;20071;-72
2022/10/19 03:39:29;;;;;;;19.48;8.13;;;;;;;8.64;100.00;100472.72;6284250;28;20537;-77
2022/10/19 03:42:29;;;;;;;15.68;8.88;;;;;;;8.66;100.00;100486.50;6284626;28;20106;-72
2022/10/19 03:45:30;;;;;;;12.38;7.82;;;;;;;8.67;100.00;100463.03;6297510;28;20048;-73
2022/10/19 03:48:32;;;;;;;14.88;8.30;;;;;;;8.73;100.00;100479.25;6280169;28;20059;-72
2022/10/19 03:51:33;;;;;;;14.03;8.00;;;;;;;8.82;100.00;100474.47;6256160;28;20053;-72
2022/10/19 03:54:34;;;;;;;13.82;8.15;;;;;;;8.92;100.00;100463.66;6275793;28;20310;-76
2022/10/19 03:57:36;;;;;;;14.15;8.45;;;;;;;8.87;100.00;100459.50;6277788;28;20049;-73
2022/10/19 04:00:41;;;;;;;14.70;8.20;;;;;;;8.87;100.00;100458.63;6273980;28;20060;-72
2022/10/19 04:03:42;;;;;;;14.43;8.32;;;;;;;8.90;100.00;100470.69;6297486;28;20083;-76
2022/10/19 04:06:47;;;;;;;16.30;8.40;;;;;;;8.88;100.00;100476.78;6295321;28;20049;-72
2022/10/19 04:09:48;;;;;;;15.50;8.10;;;;;;;8.92;100.00;100469.69;6272913;28;20143;-73
2022/10/19 04:12:48;;;;;;;12.40;7.80;;;;;;;8.88;100.00;100491.56;6288409;28;20489;-73
2022/10/19 04:15:51;;;;;;;15.38;7.93;;;;;;;8.97;100.00;100485.06;6298105;28;20121;-73
2022/10/19 04:18:53;;;;;;;13.00;8.00;;;;;;;8.93;100.00;100479.16;6296334;28;20040;-72
2022/10/19 04:21:53;;;;;;;13.95;8.23;;;;;;;8.95;100.00;100476.50;6299566;28;20044;-77
2022/10/19 04:24:54;;;;;;;13.02;8.18;;;;;;;8.99;100.00;100476.28;6304492;28;20100;-77
2022/10/19 04:27:55;;;;;;;12.63;7.47;;;;;;;9.03;100.00;100475.22;6285500;28;20455;-77
2022/10/19 04:30:56;;;;;;;15.20;8.90;;;;;;;8.99;100.00;100473.66;6263511;28;20492;-76
2022/10/19 04:33:56;;;;;;;12.05;7.30;;;;;;;8.98;100.00;100479.81;6284048;28;20049;-77
2022/10/19 04:37:00;;;;;;;14.38;8.60;;;;;;;8.85;100.00;100486.50;6274959;28;20087;-73
2022/10/19 04:40:04;;;;;;;15.45;8.45;;;;;;;8.88;100.00;100465.53;6271200;28;20045;-73
2022/10/19 04:43:05;;;;;;;14.93;9.55;;;;;;;8.88;100.00;100461.19;6254350;28;20052;-73
2022/10/19 04:46:08;;;;;;;17.02;8.18;;;;;;;8.83;100.00;100464.91;6274632;28;20408;-77
2022/10/19 04:49:09;;;;;;;13.40;8.05;;;;;;;8.85;100.00;100473.47;6284942;28;20048;-77
2022/10/19 04:52:09;;;;;;;15.10;8.85;;;;;;;8.84;100.00;100471.81;6285285;28;20041;-77
2022/10/19 04:55:10;;;;;;;15.30;8.68;;;;;;;8.83;100.00;100467.50;6286503;28;20040;-77
2022/10/19 04:58:11;;;;;;;20.30;10.02;;;;;;;8.89;100.00;100464.59;6284811;28;20045;-77
2022/10/19 05:01:14;;;;;;;16.83;8.68;;;;;;;8.93;100.00;100468.75;6283338;28;20045;-77
2022/10/19 05:04:15;;;;;;;15.73;8.55;;;;;;;8.94;100.00;100478.25;6293694;28;20044;-73
2022/10/19 05:07:15;;;;;;;16.23;8.35;;;;;;;8.93;100.00;100475.72;6267550;28;20052;-73
2022/10/19 05:10:17;;;;;;;14.18;8.27;;;;;;;8.96;100.00;100473.00;6280254;28;20052;-73
2022/10/19 05:13:19;;;;;;;11.70;8.27;;;;;;;9.01;100.00;100471.00;6291883;28;20505;-73
2022/10/19 05:16:23;;;;;;;16.10;9.57;;;;;;;9.02;100.00;100476.13;6271726;28;20088;-72
2022/10/19 05:19:24;;;;;;;15.77;8.73;;;;;;;8.97;100.00;100464.25;6270599;28;20037;-73
2022/10/19 05:22:25;;;;;;;12.40;8.05;;;;;;;9.02;100.00;100483.94;6274661;28;20047;-77
2022/10/19 05:25:25;;;;;;;16.27;8.38;;;;;;;9.07;100.00;100492.38;6281061;28;20048;-77
2022/10/19 05:28:29;;;;;;;15.57;9.18;;;;;;;9.08;100.00;100493.22;6297604;28;20037;-77
2022/10/19 05:31:32;;;;;;;16.48;9.55;;;;;;;9.22;100.00;100489.94;6298739;28;20045;-77
2022/10/19 05:34:33;;;;;;;17.73;9.95;;;;;;;9.24;100.00;100491.56;6298441;28;20513;-76
2022/10/19 05:37:36;;;;;;;14.07;9.07;;;;;;;9.25;100.00;100492.41;6297577;28;20036;-72
2022/10/19 05:40:37;;;;;;;14.27;8.82;;;;;;;9.26;100.00;100488.88;6279717;28;20493;-77
2022/10/19 05:43:39;;;;;;;14.07;8.25;;;;;;;9.38;100.00;100488.28;6281798;28;20147;-77
2022/10/19 05:46:42;;;;;;;16.05;8.45;;;;;;;9.39;100.00;100491.72;6295312;28;20041;-77
2022/10/19 05:49:43;;;;;;;16.70;9.70;;;;;;;9.47;100.00;100486.97;6296061;28;20049;-77
2022/10/19 05:52:46;;;;;;;22.38;10.18;;;;;;;9.57;100.00;100477.78;6294932;28;20083;-77
2022/10/19 05:55:46;;;;;;;28.02;14.68;;;;;;;9.61;100.00;100468.91;6294865;28;20522;-77
2022/10/19 05:58:48;;;;;;;27.58;12.95;;;;;;;9.71;100.00;100471.06;6294739;28;20064;-77
2022/10/19 06:01:51;;;;;;;19.67;10.07;;;;;;;9.76;100.00;100446.47;6277697;28;20049;-73
2022/10/19 06:04:52;;;;;;;17.75;9.45;;;;;;;9.80;100.00;100441.91;6296350;28;20041;-76
2022/10/19 06:07:52;;;;;;;20.75;11.20;;;;;;;9.73;100.00;100430.97;6294881;28;20057;-72
2022/10/19 06:11:07;;;;;;;24.35;12.30;;;;;;;9.74;100.00;100445.69;6297821;28;20044;-77
2022/10/19 06:14:13;;;;;;;22.15;11.75;;;;;;;9.79;100.00;100456.72;6299580;28;20082;-77
2022/10/19 06:17:15;;;;;;;17.98;8.93;;;;;;;9.91;100.00;100483.91;6299225;28;20480;-72
2022/10/19 06:20:16;;;;;;;;;;;;;;;9.87;100.00;100498.03;6299223;28;20068;-73
2022/10/19 06:23:17;;;;;;;18.60;10.68;;;;;;;9.95;100.00;100480.22;6299004;28;19936;-77
2022/10/19 06:26:19;;;;;;;22.65;11.02;;;;;;;10.12;100.00;100478.50;6299223;28;20103;-77
2022/10/19 06:29:20;;;;;;;15.90;9.63;;;;;;;10.13;100.00;100490.59;6300112;28;20044;-73
2022/10/19 06:32:20;;;;;;;16.35;10.35;;;;;;;10.13;100.00;100490.59;6298721;28;20412;-73
2022/10/19 06:35:21;;;;;;;21.02;11.95;;;;;;;10.22;100.00;100488.38;6298578;28;20178;-73
2022/10/19 06:38:22;;;;;;;20.92;12.55;;;;;;;10.32;100.00;100503.59;6281674;28;20511;-73
2022/10/19 06:41:23;;;;;;;15.65;10.00;;;;;;;10.41;100.00;100509.13;6298374;28;20052;-72
2022/10/19 06:44:23;;;;;;;26.90;11.57;;;;;;;10.46;100.00;100511.53;6298373;28;20111;-73
2022/10/19 06:47:29;;;;;;;17.70;9.40;;;;;;;10.52;100.00;100507.72;6298222;28;20125;-72
2022/10/19 06:50:31;;;;;;;16.17;10.20;;;;;;;10.48;100.00;100522.72;6299349;28;20032;-73
2022/10/19 06:53:33;;;;;;;17.98;9.63;;;;;;;10.63;100.00;100510.59;6298265;28;20048;-72
2022/10/19 06:56:34;;;;;;;19.95;9.18;;;;;;;10.71;100.00;100512.78;6292357;28;20063;-73
2022/10/19 06:59:34;;;;;;;13.70;8.90;;;;;;;10.79;100.00;100501.03;6288705;28;20785;-72
2022/10/19 07:02:38;;;;;;;20.50;10.57;;;;;;;10.89;100.00;100503.94;6283944;28;20036;-72
2022/10/19 07:05:39;;;;;;;16.02;10.00;;;;;;;11.01;100.00;100507.66;6294437;28;20411;-73
2022/10/19 07:08:41;;;;;;;14.35;8.95;;;;;;;11.07;100.00;100502.09;6291002;28;20036;-77
2022/10/19 07:11:44;;;;;;;;;;;;;;;11.19;100.00;100496.19;6298611;28;20076;-77
2022/10/19 07:14:46;;;;;;;29.67;12.73;;;;;;;11.24;100.00;100496.78;6272730;28;19921;-77
2022/10/19 07:17:47;;;;;;;23.52;11.50;;;;;;;11.26;100.00;100494.06;6285219;28;20065;-73
2022/10/19 07:20:59;;;;;;;23.13;11.55;;;;;;;11.32;100.00;100501.53;6280654;28;20063;-74
2022/10/19 07:24:00;;;;;;;18.90;11.10;;;;;;;11.30;100.00;100506.00;6294558;28;20521;-73
2022/10/19 07:27:00;;;;;;;18.65;10.43;;;;;;;11.37;100.00;100509.97;6274180;28;20106;-73
2022/10/19 07:30:02;;;;;;;20.77;10.35;;;;;;;11.43;100.00;100512.25;6272608;28;20061;-77
2022/10/19 07:33:03;;;;;;;19.85;10.50;;;;;;;11.53;100.00;100509.09;6274318;28;20420;-77
2022/10/19 07:36:07;;;;;;;17.00;10.18;;;;;;;11.66;100.00;100507.47;6295825;28;20076;-74
2022/10/19 07:39:11;;;;;;;17.85;10.23;;;;;;;11.72;100.00;100503.66;6282017;28;20099;-73
2022/10/19 07:42:12;;;;;;;18.67;10.93;;;;;;;11.97;100.00;100506.53;6273593;28;20045;-72
2022/10/19 07:45:13;;;;;;;17.05;10.18;;;;;;;12.08;100.00;100496.25;6273469;28;20485;-73
2022/10/19 07:48:13;;;;;;;21.17;11.73;;;;;;;12.43;100.00;100489.81;6292373;28;20128;-78
2022/10/19 07:51:16;;;;;;;15.80;9.30;;;;;;;12.55;100.00;100488.22;6297453;28;20407;-72
2022/10/19 07:54:16;;;;;;;15.10;8.98;;;;;;;12.72;100.00;100495.84;6296943;28;20040;-72
2022/10/19 07:57:17;;;;;;;12.52;7.43;;;;;;;12.48;100.00;100496.44;6296861;28;20060;-73
2022/10/19 08:00:20;;;;;;;14.27;7.63;;;;;;;12.48;100.00;100503.47;6297954;28;20068;-73
2022/10/19 08:03:21;;;;;;;13.52;8.40;;;;;;;12.45;100.00;100496.63;6296537;28;20539;-72
2022/10/19 08:06:23;;;;;;;12.45;7.47;;;;;;;12.34;100.00;100493.00;6301169;28;20041;-73
2022/10/19 08:09:23;;;;;;;16.02;8.55;;;;;;;12.26;100.00;100507.38;6287342;28;20516;-78
2022/10/19 08:12:27;;;;;;;13.68;8.43;;;;;;;12.24;100.00;100504.00;6275505;28;20045;-72
2022/10/19 08:15:29;;;;;;;16.98;8.50;;;;;;;12.37;100.00;100501.47;6271304;28;20053;-73
2022/10/19 08:18:30;;;;;;;12.65;7.97;;;;;;;12.25;100.00;100505.72;6283113;28;20032;-78
2022/10/19 08:21:31;;;;;;;16.77;7.65;;;;;;;12.32;100.00;100506.16;6295190;28;20044;-78
2022/10/19 08:24:31;;;;;;;14.48;8.75;;;;;;;12.40;100.00;100506.53;6293430;28;20036;-78
2022/10/19 08:27:32;;;;;;;13.30;7.90;;;;;;;12.44;100.00;100502.81;6303252;28;20036;-73
2022/10/19 08:30:35;;;;;;;;;;;;;;;12.42;100.00;100509.06;6297795;28;20476;-77
2022/10/19 08:33:35;;;;;;;18.05;7.18;;;;;;;12.58;100.00;100516.78;6295119;28;19931;-78
2022/10/19 08:36:36;;;;;;;12.27;7.85;;;;;;;12.72;100.00;100513.31;6279226;28;20067;-78
2022/10/19 08:39:37;;;;;;;12.45;7.85;;;;;;;12.85;100.00;100509.84;6293399;28;20045;-73
2022/10/19 08:42:59;;;;;;;12.52;7.68;;;;;;;12.92;100.00;100507.69;6279102;28;20040;-73
2022/10/19 08:46:35;;;;;;;14.88;7.95;;;;;;;13.04;100.00;100504.28;6301466;28;20036;-78
2022/10/19 08:49:36;;;;;;;20.08;10.07;;;;;;;13.21;100.00;100502.34;6308228;28;20041;-78
2022/10/19 08:52:38;;;;;;;24.10;12.73;;;;;;;13.25;100.00;100502.03;6288289;28;20147;-78
2022/10/19 08:55:56;;;;;;;14.80;7.75;;;;;;;13.37;100.00;100505.69;6303772;28;20048;-73
2022/10/19 08:59:00;;;;;;;16.85;8.73;;;;;;;13.44;100.00;100504.31;6289236;28;20040;-73
2022/10/19 09:02:16;;;;;;;20.33;8.95;;;;;;;13.62;100.00;100493.56;6286528;28;20037;-78
2022/10/19 09:05:35;;;;;;;11.75;7.38;;;;;;;13.77;100.00;100500.41;6280253;28;20416;-73
2022/10/19 09:08:37;;;;;;;15.88;8.57;;;;;;;13.98;100.00;100505.13;6255384;28;20041;-73
2022/10/19 09:11:43;;;;;;;11.98;7.18;;;;;;;14.07;100.00;100497.50;6275723;28;20065;-72
2022/10/19 09:15:00;;;;;;;15.18;9.07;;;;;;;14.35;100.00;100503.47;6289580;28;20127;-74
2022/10/19 09:18:01;;;;;;;15.77;9.05;;;;;;;14.47;100.00;100507.84;6283386;28;20052;-76
2022/10/19 09:21:09;;;;;;;17.35;10.18;;;;;;;14.57;100.00;100504.63;6297949;28;20040;-73
2022/10/19 09:24:29;;;;;;;17.02;9.05;;;;;;;14.50;100.00;100522.56;6300763;28;20452;-78
2022/10/19 09:27:36;;;;;;;12.57;8.27;;;;;;;14.76;100.00;100520.72;6284576;28;20061;-72
2022/10/19 09:30:41;;;;;;;15.80;9.38;;;;;;;14.78;100.00;100516.22;6276732;28;20045;-73
2022/10/19 09:33:48;;;;;;;16.17;9.40;;;;;;;15.10;100.00;100507.81;6293780;28;20052;-78
2022/10/19 09:36:52;;;;;;;16.92;9.73;;;;;;;15.15;100.00;100510.94;6286953;28;20033;-79
2022/10/19 09:39:54;;;;;;;13.52;8.30;;;;;;;15.85;100.00;100514.56;6287518;28;20496;-73
2022/10/19 09:42:57;;;;;;;14.77;9.05;;;;;;;16.04;100.00;100512.22;6252163;28;20397;-73
2022/10/19 09:46:12;;;;;;;;;;;;;;;16.07;100.00;100521.66;6304692;28;20037;-78
2022/10/19 09:49:13;;;;;;;11.73;6.85;;;;;;;16.07;100.00;100517.22;6285448;28;19927;-79
2022/10/19 09:52:41;;;;;;;13.32;8.43;;;;;;;15.88;100.00;100516.97;6295106;28;20057;-72
2022/10/19 09:55:44;;;;;;;14.50;7.97;;;;;;;15.98;100.00;100519.72;6299093;28;20131;-72
2022/10/19 09:58:48;;;;;;;11.35;7.18;;;;;;;15.83;100.00;100508.56;6291481;28;20489;-73
2022/10/19 10:02:10;;;;;;;9.15;6.03;;;;;;;15.77;100.00;100498.53;6294460;28;20076;-78
2022/10/19 10:05:16;;;;;;;9.13;6.53;;;;;;;16.12;99.64;100498.44;6289874;28;20045;-78
2022/10/19 10:08:24;;;;;;;10.25;6.05;;;;;;;16.05;96.93;100492.81;6283811;28;20041;-73
2022/10/19 10:11:34;;;;;;;11.85;6.45;;;;;;;16.50;92.99;100492.84;6257733;28;20053;-73
2022/10/19 10:14:38;;;;;;;11.65;6.93;;;;;;;16.94;93.46;100492.91;6282831;28;20049;-79
2022/10/19 10:17:43;;;;;;;10.60;6.47;;;;;;;17.04;90.34;100487.72;6266732;28;20064;-78
2022/10/19 10:21:02;;;;;;;13.88;8.02;;;;;;;17.50;92.02;100476.88;6283009;28;20037;-79
2022/10/19 10:24:05;;;;;;;11.98;7.20;;;;;;;17.94;90.42;100474.13;6285686;28;20044;-78
2022/10/19 10:27:36;;;;;;;8.10;4.80;;;;;;;17.60;82.87;100471.66;6277725;28;20100;-73
2022/10/19 10:30:39;;;;;;;10.68;5.25;;;;;;;17.68;81.39;100463.09;6281976;28;20056;-73
2022/10/19 10:33:40;;;;;;;8.48;4.50;;;;;;;17.56;79.01;100461.50;6274953;28;20052;-73
2022/10/19 10:36:42;;;;;;;6.38;4.50;;;;;;;17.96;79.18;100460.78;6273632;28;20037;-79
2022/10/19 10:39:43;;;;;;;7.95;4.50;;;;;;;18.27;81.25;100464.25;6284304;28;20509;-78
2022/10/19 10:42:47;;;;;;;6.68;3.85;;;;;;;18.44;76.69;100457.50;6277818;28;20051;-73
2022/10/19 10:45:51;;;;;;;7.72;4.60;;;;;;;18.62;77.98;100447.13;6275529;28;20128;-79
2022/10/19 10:48:57;;;;;;;6.75;4.18;;;;;;;18.74;77.29;100446.03;6285053;28;20045;-78
2022/10/19 10:52:20;;;;;;;4.28;3.13;;;;;;;18.93;73.73;100446.06;6301688;28;20480;-79
2022/10/19 10:55:25;;;;;;;5.93;3.13;;;;;;;18.78;73.78;100442.16;6292525;28;20053;-74
2022/10/19 10:58:47;;;;;;;5.30;3.17;;;;;;;18.74;70.40;100443.41;6281409;28;20567;-74
2022/10/19 11:02:10;;;;;;;5.82;3.70;;;;;;;18.84;73.27;100439.00;6278459;28;20045;-78
2022/10/19 11:05:21;;;;;;;4.35;2.78;;;;;;;18.52;69.39;100432.06;6270587;28;20056;-78
2022/10/19 11:08:45;;;;;;;4.93;3.17;;;;;;;18.82;69.85;100425.06;6284718;28;20037;-78
2022/10/19 11:11:49;;;;;;;4.35;3.00;;;;;;;19.10;73.22;100423.38;6275095;28;20049;-73
2022/10/19 11:15:00;;;;;;;5.82;3.20;;;;;;;19.39;69.54;100427.00;6288461;28;20056;-79
2022/10/19 11:18:19;;;;;;;9.07;3.47;;;;;;;19.72;69.99;100425.69;6259699;28;20049;-78
2022/10/19 11:21:32;;;;;;;6.38;3.75;;;;;;;20.13;67.21;100418.28;6254437;28;20068;-73
2022/10/19 11:24:50;;;;;;;5.78;3.35;;;;;;;20.25;61.39;100408.34;6273697;28;20128;-73
2022/10/19 11:27:56;;;;;;;5.88;2.88;;;;;;;19.81;63.84;100416.91;6293201;28;20044;-73
2022/10/19 11:31:04;;;;;;;5.70;2.40;;;;;;;19.46;66.33;100414.88;6252104;28;20048;-72
2022/10/19 11:34:35;;;;;;;5.17;2.53;;;;;;;19.47;67.43;100412.06;6280320;28;20045;-73
2022/10/19 11:37:45;;;;;;;4.30;2.75;;;;;;;19.16;69.90;100405.31;6280617;28;20048;-73
2022/10/19 11:41:20;;;;;;;2.67;2.13;;;;;;;19.05;68.80;100404.47;6272127;28;20041;-73
2022/10/19 11:44:42;;;;;;;3.58;2.03;;;;;;;18.68;69.19;100402.47;6281262;28;20052;-73
2022/10/19 11:47:52;;;;;;;2.00;1.58;;;;;;;18.45;68.72;100412.47;6247266;28;20037;-72
2022/10/19 11:51:24;;;;;;;2.47;1.87;;;;;;;18.42;72.35;100412.72;6247316;28;20041;-78
2022/10/19 11:54:50;;;;;;;2.17;1.55;;;;;;;18.39;71.27;100398.94;6266927;28;20486;-79
2022/10/19 11:58:12;;;;;;;2.67;1.83;;;;;;;18.42;69.96;100391.59;6255156;28;20033;-78
2022/10/19 12:01:26;;;;;;;1.50;1.40;;;;;;;18.49;70.68;100386.59;6252270;28;20456;-72
2022/10/19 12:04:45;;;;;;;1.27;1.13;;;;;;;18.40;70.75;100384.78;6247935;28;20385;-72
2022/10/19 12:08:06;;;;;;;2.65;1.50;;;;;;;18.35;70.87;100397.56;6252534;28;20087;-72
2022/10/19 12:11:31;;;;;;;1.17;1.02;;;;;;;18.05;70.74;100381.63;6291450;28;20068;-78
2022/10/19 12:14:34;;;;;;;;;;;;;;;18.51;69.93;100374.06;6257265;28;20057;-78
2022/10/19 12:17:38;;;;;;;1.00;0.90;;;;;;;18.92;67.78;100385.41;6267965;28;20066;-78
2022/10/19 12:20:49;;;;;;;1.48;1.20;;;;;;;18.64;68.11;100377.31;6289224;28;20174;-75
2022/10/19 12:23:51;;;;;;;3.20;1.80;;;;;;;18.81;68.83;100373.16;6277561;28;20499;-73
2022/10/19 12:26:53;;;;;;;;;;;;;;;18.64;69.37;100372.00;6297393;28;20067;-73
2022/10/19 12:30:04;;;;;;;1.25;1.10;;;;;;;18.26;68.10;100376.28;6296048;28;20383;-73
2022/10/19 12:33:19;;;;;;;4.03;1.10;;;;;;;18.33;65.68;100376.56;6295291;28;20076;-73
2022/10/19 12:36:41;;;;;;;1.40;1.10;;;;;;;18.26;66.58;100373.63;6294746;28;20175;-73
2022/10/19 12:40:01;;;;;;;;;;;;;;;18.17;67.56;100363.88;6297320;28;20502;-78
2022/10/19 12:43:20;;;;;;;0.88;0.80;;;;;;;18.64;67.45;100366.72;6300344;28;19924;-73
2022/10/19 12:46:36;;;;;;;1.45;1.20;;;;;;;18.68;65.36;100364.66;6295244;28;20075;-73
2022/10/19 12:49:46;;;;;;;1.20;1.10;;;;;;;18.99;64.91;100359.25;6300440;28;20124;-79
2022/10/19 12:52:51;;;;;;;1.25;1.05;;;;;;;19.34;65.19;100369.22;6299286;28;20048;-79
2022/10/19 12:56:02;;;;;;;1.77;1.20;;;;;;;19.24;63.11;100356.00;6299803;28;20036;-79
2022/10/19 12:59:02;;;;;;;1.60;1.10;;;;;;;19.11;62.59;100366.88;6298856;28;20505;-79
2022/10/19 13:02:21;;;;;;;1.67;1.25;;;;;;;19.21;64.91;100366.88;6299308;28;20048;-79
2022/10/19 13:05:25;;;;;;;0.63;0.63;;;;;;;19.18;62.34;100363.69;6281881;28;20063;-79
2022/10/19 13:08:32;;;;;;;1.20;1.00;;;;;;;19.07;62.87;100357.56;6299423;28;20041;-79
2022/10/19 13:11:34;;;;;;;0.80;0.75;;;;;;;18.97;62.10;100362.03;6299208;28;20105;-78
2022/10/19 13:14:54;;;;;;;2.38;1.50;;;;;;;18.75;64.88;100355.19;6300324;28;20060;-79
2022/10/19 13:17:55;;;;;;;1.30;1.17;;;;;;;18.60;65.78;100349.47;6298479;28;20044;-78
2022/10/19 13:20:57;;;;;;;11.18;5.20;;;;;;;18.48;66.29;100353.22;6304680;28;20458;-78
2022/10/19 13:24:23;;;;;;;4.80;3.22;;;;;;;18.16;69.58;100350.78;6290101;28;20081;-77
2022/10/19 13:27:25;;;;;;;2.17;1.80;;;;;;;17.95;69.20;100354.34;6305476;28;20044;-78
2022/10/19 13:30:45;;;;;;;1.75;1.50;;;;;;;17.88;70.83;100348.78;6307021;28;20041;-73
2022/10/19 13:33:47;;;;;;;1.90;1.50;;;;;;;17.86;70.92;100347.25;6299665;28;20524;-73
2022/10/19 13:37:02;;;;;;;11.93;5.25;;;;;;;17.63;72.63;100357.94;6283028;28;20048;-73
2022/10/19 13:40:18;;;;;;;7.90;2.80;;;;;;;17.61;71.70;100357.25;6299627;28;20560;-73
2022/10/19 13:43:51;;;;;;;3.65;1.95;;;;;;;17.85;72.65;100350.84;6299339;28;20044;-73
2022/10/19 13:47:07;;;;;;;2.38;1.60;;;;;;;17.72;72.24;100362.41;6295111;28;20526;-78
2022/10/19 13:50:21;;;;;;;3.58;1.60;;;;;;;17.50;72.59;100350.25;6284525;28;20045;-78
2022/10/19 13:53:39;;;;;;;7.47;3.30;;;;;;;17.34;72.44;100357.81;6279289;28;20048;-78
2022/10/19 13:57:05;;;;;;;7.72;4.03;;;;;;;17.23;72.36;100352.56;6261999;28;20075;-79
2022/10/19 14:00:17;;;;;;;4.80;2.75;;;;;;;17.06;74.96;100360.09;6280621;28;20060;-78
2022/10/19 14:03:22;;;;;;;;;;;;;;;17.04;72.23;100362.03;6298839;28;20404;-72
2022/10/19 14:06:30;;;;;;;2.17;1.70;;;;;;;17.07;73.61;100359.16;6295536;28;19963;-72
2022/10/19 14:09:49;;;;;;;4.95;2.35;;;;;;;17.08;74.40;100354.72;6275176;28;20531;-78
2022/10/19 14:12:50;;;;;;;4.53;2.03;;;;;;;17.13;78.00;100349.88;6282480;28;20057;-78
2022/10/19 14:15:53;;;;;;;2.50;1.73;;;;;;;17.08;79.61;100354.72;6284321;28;20063;-78
2022/10/19 14:18:57;;;;;;;4.45;3.20;;;;;;;16.92;75.13;100356.00;6283085;28;20381;-78
2022/10/19 14:22:00;;;;;;;10.30;2.78;;;;;;;16.85;77.41;100354.00;6282714;28;20477;-78